Time;durP1;ratioP1;P1;durP2;ratioP2;P2;SDS_P1;SDS_P2;PMS_P1;PMS_P2;Temp;Humidity;BMP_temperature;BMP_pressure;BME280_temperature;BME280_humidity;BME280_pressure;Samples;Min_cycle;Max_cycle;Signal;HPM_P1;HPM_P2
2021/05/08 00:00:23;;;;;;;15.27;1.60;;;;;;;;;;6226971;28;20042;-74
2021/05/08 00:03:24;;;;;;;7.32;1.50;;;;;;;;;;6214395;28;20131;-73
2021/05/08 00:06:26;;;;;;;5.72;2.25;;;;;;;;;;6213114;28;20073;-74
2021/05/08 00:09:28;;;;;;;5.95;0.93;;;;;;;;;;6252509;28;20057;-74
2021/05/08 00:12:30;;;;;;;2.45;0.88;;;;;;;;;;6257666;28;20052;-73
2021/05/08 00:15:31;;;;;;;2.75;0.60;;;;;;;;;;6259016;28;20451;-73
2021/05/08 00:18:32;;;;;;;1.23;0.70;;;;;;;;;;6239856;28;20537;-73
2021/05/08 00:21:34;;;;;;;2.03;0.60;;;;;;;;;;6250180;28;20136;-74
2021/05/08 00:24:36;;;;;;;2.97;0.57;;;;;;;;;;6252363;28;20056;-74
2021/05/08 00:27:37;;;;;;;1.10;0.50;;;;;;;;;;6248530;28;20045;-73
2021/05/08 00:30:38;;;;;;;1.48;0.45;;;;;;;;;;6259895;28;20056;-73
2021/05/08 00:33:40;;;;;;;1.85;0.70;;;;;;;;;;6259950;28;20056;-74
2021/05/08 00:36:44;;;;;;;0.85;0.50;;;;;;;;;;6249824;28;20183;-73
2021/05/08 00:39:46;;;;;;;1.20;0.50;;;;;;;;;;6254666;28;20041;-73
2021/05/08 00:42:47;;;;;;;1.67;0.60;;;;;;;;;;6235004;28;20050;-74
2021/05/08 00:45:48;;;;;;;3.03;0.70;;;;;;;;;;6233686;28;20111;-74
2021/05/08 00:48:49;;;;;;;2.60;0.70;;;;;;;;;;6253072;28;20049;-75
2021/05/08 00:51:51;;;;;;;6.00;0.80;;;;;;;;;;6246898;28;20049;-74
2021/05/08 00:54:52;;;;;;;2.33;0.50;;;;;;;;;;6248966;28;20081;-73
2021/05/08 00:57:53;;;;;;;0.70;0.50;;;;;;;;;;6245491;28;20053;-74
2021/05/08 01:00:55;;;;;;;2.38;0.40;;;;;;;;;;6249298;28;20141;-73
2021/05/08 01:03:56;;;;;;;1.42;0.55;;;;;;;;;;6249369;28;20049;-73
2021/05/08 01:06:59;;;;;;;1.45;0.52;;;;;;;;;;6250518;28;20103;-73
2021/05/08 01:10:00;;;;;;;2.55;0.70;;;;;;;;;;6259906;28;20072;-74
2021/05/08 01:13:02;;;;;;;1.95;0.68;;;;;;;;;;6257763;28;20495;-74
2021/05/08 01:16:04;;;;;;;1.95;1.25;;;;;;;;;;6233820;28;20087;-73
2021/05/08 01:19:06;;;;;;;3.53;1.20;;;;;;;;;;6247800;28;20140;-75
2021/05/08 01:22:08;;;;;;;4.00;1.20;;;;;;;;;;6243565;28;20069;-73
2021/05/08 01:25:11;;;;;;;4.93;1.33;;;;;;;;;;6240235;28;20119;-74
2021/05/08 01:28:12;;;;;;;1.95;1.10;;;;;;;;;;6237939;28;20144;-73
2021/05/08 01:31:14;;;;;;;2.25;1.30;;;;;;;;;;6242934;28;20058;-73
2021/05/08 01:34:15;;;;;;;5.38;1.17;;;;;;;;;;6266032;28;20051;-74
2021/05/08 01:37:17;;;;;;;3.55;1.60;;;;;;;;;;6265395;28;20131;-73
2021/05/08 01:40:18;;;;;;;4.07;1.38;;;;;;;;;;6264860;28;20179;-73
2021/05/08 01:43:19;;;;;;;2.55;1.55;;;;;;;;;;6257318;28;20077;-76
2021/05/08 01:46:20;;;;;;;1.83;1.33;;;;;;;;;;6239364;28;20556;-74
2021/05/08 01:49:21;;;;;;;3.05;1.63;;;;;;;;;;6250008;28;20989;-73
2021/05/08 01:52:23;;;;;;;3.10;1.40;;;;;;;;;;6259093;28;20136;-74
2021/05/08 01:55:26;;;;;;;2.78;1.40;;;;;;;;;;6254084;28;20083;-73
2021/05/08 01:58:27;;;;;;;2.38;1.30;;;;;;;;;;6249995;28;20068;-74
2021/05/08 02:01:28;;;;;;;3.22;1.83;;;;;;;;;;6253137;28;20147;-73
2021/05/08 02:04:29;;;;;;;2.25;1.27;;;;;;;;;;6238439;28;20099;-74
2021/05/08 02:07:31;;;;;;;4.40;1.50;;;;;;;;;;6257466;28;20119;-73
2021/05/08 02:10:33;;;;;;;2.95;1.40;;;;;;;;;;6253425;28;20051;-73
2021/05/08 02:13:34;;;;;;;2.53;1.55;;;;;;;;;;6255945;28;20646;-74
2021/05/08 02:16:35;;;;;;;3.42;1.58;;;;;;;;;;6246320;28;20496;-73
2021/05/08 02:19:36;;;;;;;2.55;1.60;;;;;;;;;;6250149;28;20421;-73
2021/05/08 02:22:39;;;;;;;2.65;1.48;;;;;;;;;;6254759;28;20068;-74
2021/05/08 02:25:40;;;;;;;2.20;1.50;;;;;;;;;;6261024;28;20128;-73
2021/05/08 02:28:41;;;;;;;3.15;1.55;;;;;;;;;;6262243;28;20148;-74
2021/05/08 02:31:42;;;;;;;2.65;1.63;;;;;;;;;;6243156;28;20141;-74
2021/05/08 02:34:43;;;;;;;3.70;1.52;;;;;;;;;;6263669;28;20132;-73
2021/05/08 02:37:45;;;;;;;2.65;1.60;;;;;;;;;;6252089;28;20174;-73
2021/05/08 02:40:46;;;;;;;3.33;2.05;;;;;;;;;;6249139;28;20167;-73
2021/05/08 02:43:47;;;;;;;2.33;1.45;;;;;;;;;;6229643;28;20065;-73
2021/05/08 02:46:48;;;;;;;3.05;1.88;;;;;;;;;;6244284;28;20102;-73
2021/05/08 02:49:51;;;;;;;4.00;1.75;;;;;;;;;;6255015;28;20096;-74
2021/05/08 02:52:53;;;;;;;2.38;1.50;;;;;;;;;;6253024;28;20453;-73
2021/05/08 02:55:54;;;;;;;2.05;1.63;;;;;;;;;;6256182;28;20053;-73
2021/05/08 02:58:55;;;;;;;3.53;1.70;;;;;;;;;;6254041;28;20143;-74
2021/05/08 03:01:56;;;;;;;2.33;1.55;;;;;;;;;;6256205;28;20045;-74
2021/05/08 03:04:57;;;;;;;3.35;1.40;;;;;;;;;;6256807;28;20124;-74
2021/05/08 03:07:59;;;;;;;5.05;1.48;;;;;;;;;;6247719;28;20132;-72
2021/05/08 03:11:00;;;;;;;3.15;1.60;;;;;;;;;;6258650;28;20457;-74
2021/05/08 03:14:01;;;;;;;3.10;1.55;;;;;;;;;;6263166;28;20071;-73
2021/05/08 03:17:02;;;;;;;2.53;1.40;;;;;;;;;;6262861;28;20128;-74
2021/05/08 03:20:04;;;;;;;2.20;1.20;;;;;;;;;;6259373;28;20124;-74
2021/05/08 03:23:06;;;;;;;2.00;1.48;;;;;;;;;;6262283;28;20036;-75
2021/05/08 03:26:07;;;;;;;3.40;2.03;;;;;;;;;;6259681;28;20807;-73
2021/05/08 03:29:08;;;;;;;1.75;1.48;;;;;;;;;;6258182;28;20504;-75
2021/05/08 03:32:10;;;;;;;5.68;1.50;;;;;;;;;;6260533;28;20068;-74
2021/05/08 03:35:11;;;;;;;2.10;1.60;;;;;;;;;;6263253;28;20129;-73
2021/05/08 03:38:13;;;;;;;3.42;1.52;;;;;;;;;;6257821;28;20079;-73
2021/05/08 03:41:14;;;;;;;4.28;1.35;;;;;;;;;;6259554;28;20168;-73
2021/05/08 03:44:15;;;;;;;3.22;1.38;;;;;;;;;;6256975;28;20547;-73
2021/05/08 03:47:16;;;;;;;2.50;1.30;;;;;;;;;;6246361;28;20145;-74
2021/05/08 03:50:17;;;;;;;6.97;1.20;;;;;;;;;;6257374;28;20136;-74
2021/05/08 03:53:20;;;;;;;3.63;1.42;;;;;;;;;;6255787;28;20141;-73
2021/05/08 03:56:21;;;;;;;1.65;1.10;;;;;;;;;;6249167;28;20077;-75
2021/05/08 03:59:22;;;;;;;5.07;1.17;;;;;;;;;;6251681;28;20132;-73
2021/05/08 04:02:23;;;;;;;1.77;1.40;;;;;;;;;;6251399;28;20563;-73
2021/05/08 04:05:24;;;;;;;2.55;1.10;;;;;;;;;;6251810;28;20124;-73
2021/05/08 04:08:26;;;;;;;4.13;1.25;;;;;;;;;;6256855;28;20194;-73
2021/05/08 04:11:28;;;;;;;1.45;0.90;;;;;;;;;;6237476;28;20553;-73
2021/05/08 04:14:29;;;;;;;2.38;0.93;;;;;;;;;;6252347;28;20065;-74
2021/05/08 04:17:30;;;;;;;4.47;0.90;;;;;;;;;;6258340;28;20075;-73
2021/05/08 04:20:31;;;;;;;3.45;1.00;;;;;;;;;;6257206;28;20083;-74
2021/05/08 04:23:33;;;;;;;1.90;0.80;;;;;;;;;;6253625;28;20563;-74
2021/05/08 04:26:34;;;;;;;3.42;0.80;;;;;;;;;;6243693;28;20054;-73
2021/05/08 04:29:35;;;;;;;3.08;0.70;;;;;;;;;;6233749;28;20433;-73
2021/05/08 04:32:36;;;;;;;1.27;0.80;;;;;;;;;;6258195;28;20547;-73
2021/05/08 04:35:37;;;;;;;2.78;0.80;;;;;;;;;;6258682;28;20165;-72
2021/05/08 04:38:39;;;;;;;2.13;0.52;;;;;;;;;;6261712;28;20084;-74
2021/05/08 04:41:41;;;;;;;1.40;0.95;;;;;;;;;;6267781;28;20048;-74
2021/05/08 04:44:42;;;;;;;2.97;0.65;;;;;;;;;;6252187;28;20061;-74
2021/05/08 04:47:43;;;;;;;1.17;0.50;;;;;;;;;;6256192;28;20118;-73
2021/05/08 04:50:44;;;;;;;2.17;0.70;;;;;;;;;;6254987;28;20045;-73
2021/05/08 04:53:48;;;;;;;1.70;0.60;;;;;;;;;;6246175;28;20123;-75
2021/05/08 04:56:49;;;;;;;1.23;0.57;;;;;;;;;;6251665;28;20042;-73
2021/05/08 04:59:50;;;;;;;1.35;0.52;;;;;;;;;;6259653;28;20131;-74
2021/05/08 05:02:51;;;;;;;3.13;1.27;;;;;;;;;;6253015;28;20064;-73
2021/05/08 05:05:52;;;;;;;0.60;0.47;;;;;;;;;;6243932;28;20291;-73
2021/05/08 05:08:55;;;;;;;3.30;0.57;;;;;;;;;;6265000;28;20080;-73
2021/05/08 05:11:56;;;;;;;5.30;0.50;;;;;;;;;;6248978;28;20178;-73
2021/05/08 05:14:57;;;;;;;0.80;0.47;;;;;;;;;;6266758;28;20072;-74
2021/05/08 05:17:58;;;;;;;1.25;0.43;;;;;;;;;;6268132;28;20045;-73
2021/05/08 05:20:59;;;;;;;1.05;0.43;;;;;;;;;;6256644;28;20151;-73
2021/05/08 05:24:01;;;;;;;1.25;0.55;;;;;;;;;;6245575;28;20179;-74
2021/05/08 05:27:02;;;;;;;1.67;0.82;;;;;;;;;;6248853;28;20536;-73
2021/05/08 05:30:04;;;;;;;0.82;0.55;;;;;;;;;;6253179;28;20586;-73
2021/05/08 05:33:05;;;;;;;1.00;0.50;;;;;;;;;;6261508;28;20076;-73
2021/05/08 05:36:06;;;;;;;1.45;0.40;;;;;;;;;;6248464;28;20118;-73
2021/05/08 05:39:08;;;;;;;1.33;0.40;;;;;;;;;;6252453;28;20123;-73
2021/05/08 05:42:10;;;;;;;0.85;0.47;;;;;;;;;;6252413;28;20112;-73
2021/05/08 05:45:12;;;;;;;4.78;0.55;;;;;;;;;;6263977;28;20152;-74
2021/05/08 05:48:13;;;;;;;4.60;0.65;;;;;;;;;;6250849;28;20152;-73
2021/05/08 05:51:14;;;;;;;3.17;0.82;;;;;;;;;;6255103;28;20053;-73
2021/05/08 05:54:16;;;;;;;1.20;0.55;;;;;;;;;;6247227;28;20069;-73
2021/05/08 05:57:18;;;;;;;1.10;0.50;;;;;;;;;;6240806;28;20081;-74
2021/05/08 06:00:20;;;;;;;2.53;0.55;;;;;;;;;;6253650;28;20041;-73
2021/05/08 06:03:22;;;;;;;0.68;0.40;;;;;;;;;;6254703;28;20080;-74
2021/05/08 06:06:23;;;;;;;3.20;1.55;;;;;;;;;;6245989;28;20046;-73
2021/05/08 06:09:26;;;;;;;1.42;0.50;;;;;;;;;;6266515;28;20124;-73
2021/05/08 06:12:27;;;;;;;2.47;0.68;;;;;;;;;;6262178;28;20072;-73
2021/05/08 06:15:28;;;;;;;1.95;0.45;;;;;;;;;;6265973;28;20080;-74
2021/05/08 06:18:29;;;;;;;1.17;0.50;;;;;;;;;;6262404;28;20172;-74
2021/05/08 06:21:31;;;;;;;0.95;0.43;;;;;;;;;;6251885;28;20065;-73
2021/05/08 06:24:33;;;;;;;2.72;1.08;;;;;;;;;;6250114;28;20464;-73
2021/05/08 06:27:34;;;;;;;2.60;0.50;;;;;;;;;;6255031;28;20092;-74
2021/05/08 06:30:36;;;;;;;3.83;0.60;;;;;;;;;;6250567;28;20075;-74
2021/05/08 06:33:37;;;;;;;2.90;0.50;;;;;;;;;;6249968;28;20191;-74
2021/05/08 06:36:38;;;;;;;4.20;0.75;;;;;;;;;;6234092;28;20458;-75
2021/05/08 06:39:40;;;;;;;1.38;0.60;;;;;;;;;;6246485;28;20493;-73
2021/05/08 06:42:41;;;;;;;1.17;0.50;;;;;;;;;;6228573;28;20077;-74
2021/05/08 06:45:42;;;;;;;1.23;0.70;;;;;;;;;;6229352;28;20140;-72
2021/05/08 06:48:43;;;;;;;1.23;0.70;;;;;;;;;;6227370;28;20103;-74
2021/05/08 06:51:44;;;;;;;2.55;0.68;;;;;;;;;;6228778;28;20041;-74
2021/05/08 06:54:46;;;;;;;1.20;0.43;;;;;;;;;;6230929;28;20438;-73
2021/05/08 06:57:48;;;;;;;0.75;0.40;;;;;;;;;;6222942;28;20140;-74
2021/05/08 07:00:49;;;;;;;4.45;0.40;;;;;;;;;;6223420;28;20128;-73
2021/05/08 07:03:50;;;;;;;0.75;0.50;;;;;;;;;;6229960;28;20136;-73
2021/05/08 07:06:52;;;;;;;2.00;0.80;;;;;;;;;;6253185;28;20112;-73
2021/05/08 07:09:53;;;;;;;0.82;0.50;;;;;;;;;;6255605;28;20155;-73
2021/05/08 07:12:55;;;;;;;0.70;0.47;;;;;;;;;;6259260;28;20076;-73
2021/05/08 07:15:56;;;;;;;5.75;0.70;;;;;;;;;;6235041;28;20446;-73
2021/05/08 07:18:57;;;;;;;2.80;0.60;;;;;;;;;;6256720;28;20116;-73
2021/05/08 07:22:01;;;;;;;2.80;0.82;;;;;;;;;;6260107;28;20073;-74
2021/05/08 07:25:03;;;;;;;2.20;0.65;;;;;;;;;;6239598;28;20056;-73
2021/05/08 07:28:09;;;;;;;2.70;0.60;;;;;;;;;;6237594;28;20128;-75
2021/05/08 07:31:10;;;;;;;0.93;0.65;;;;;;;;;;6238220;28;20107;-73
2021/05/08 07:34:11;;;;;;;2.53;0.60;;;;;;;;;;6256452;28;20045;-74
2021/05/08 07:37:12;;;;;;;2.05;1.08;;;;;;;;;;6251020;28;20164;-73
2021/05/08 07:40:14;;;;;;;1.50;0.40;;;;;;;;;;6258149;28;20136;-74
2021/05/08 07:43:17;;;;;;;4.70;0.60;;;;;;;;;;6250827;28;20052;-74
2021/05/08 07:46:18;;;;;;;3.22;0.60;;;;;;;;;;6247942;28;20061;-73
2021/05/08 07:49:19;;;;;;;1.10;0.57;;;;;;;;;;6246596;28;20077;-73
2021/05/08 07:52:20;;;;;;;0.63;0.35;;;;;;;;;;6250793;28;20048;-73
2021/05/08 07:55:23;;;;;;;1.85;0.50;;;;;;;;;;6249393;28;20566;-74
2021/05/08 07:58:24;;;;;;;2.88;0.70;;;;;;;;;;6252327;28;20124;-74
2021/05/08 08:01:25;;;;;;;0.95;0.43;;;;;;;;;;6251610;28;20475;-74
2021/05/08 08:04:26;;;;;;;1.38;0.50;;;;;;;;;;6238086;28;20071;-73
2021/05/08 08:07:28;;;;;;;1.33;0.63;;;;;;;;;;6260975;28;20126;-74
2021/05/08 08:10:30;;;;;;;3.67;0.73;;;;;;;;;;6261399;28;20134;-74
2021/05/08 08:13:31;;;;;;;1.75;0.80;;;;;;;;;;6259192;28;20104;-74
2021/05/08 08:16:32;;;;;;;2.28;1.17;;;;;;;;;;6256886;28;20088;-75
2021/05/08 08:19:33;;;;;;;1.58;0.52;;;;;;;;;;6261346;28;20037;-74
2021/05/08 08:22:34;;;;;;;1.30;0.60;;;;;;;;;;6248383;28;20075;-74
2021/05/08 08:25:36;;;;;;;3.20;0.90;;;;;;;;;;6247970;28;20088;-74
2021/05/08 08:28:37;;;;;;;2.03;0.60;;;;;;;;;;6248979;28;20049;-75
2021/05/08 08:31:38;;;;;;;4.22;0.60;;;;;;;;;;6259243;28;20124;-75
2021/05/08 08:34:42;;;;;;;3.05;0.60;;;;;;;;;;6245718;28;20056;-75
2021/05/08 08:37:44;;;;;;;0.63;0.50;;;;;;;;;;6251490;28;20045;-76
2021/05/08 08:40:46;;;;;;;1.67;0.60;;;;;;;;;;6246616;28;20041;-74
2021/05/08 08:43:47;;;;;;;4.25;0.68;;;;;;;;;;6256589;28;20084;-74
2021/05/08 08:46:53;;;;;;;2.78;0.65;;;;;;;;;;6263034;28;20069;-75
2021/05/08 08:49:57;;;;;;;1.48;0.50;;;;;;;;;;6260289;28;20049;-75
2021/05/08 08:52:59;;;;;;;2.42;0.88;;;;;;;;;;6255192;28;20060;-75
2021/05/08 08:56:01;;;;;;;3.17;0.70;;;;;;;;;;6247991;28;20080;-74
2021/05/08 08:59:05;;;;;;;3.95;1.30;;;;;;;;;;6247189;28;20473;-71
2021/05/08 09:02:06;;;;;;;;;;;;;;;;;;6245936;28;20075;-73
2021/05/08 09:05:08;;;;;;;2.45;0.80;;;;;;;;;;6249034;28;20414;-74
2021/05/08 09:08:12;;;;;;;2.88;0.75;;;;;;;;;;6243853;28;20299;-74
2021/05/08 09:11:18;;;;;;;1.15;0.60;;;;;;;;;;6242766;28;21473;-74
2021/05/08 09:14:22;;;;;;;2.47;0.65;;;;;;;;;;6220775;28;20052;-73
2021/05/08 09:17:25;;;;;;;1.42;0.60;;;;;;;;;;6225606;28;20072;-75
2021/05/08 09:20:40;;;;;;;3.25;0.95;;;;;;;;;;6223711;28;20056;-75
2021/05/08 09:23:41;;;;;;;1.35;0.60;;;;;;;;;;6228359;28;20081;-74
2021/05/08 09:26:48;;;;;;;3.88;0.70;;;;;;;;;;6228574;28;20555;-72
2021/05/08 09:30:04;;;;;;;2.60;0.70;;;;;;;;;;6249082;28;20042;-74
2021/05/08 09:33:06;;;;;;;1.80;0.70;;;;;;;;;;6265735;28;20602;-74
2021/05/08 09:36:10;;;;;;;2.85;1.20;;;;;;;;;;6269423;28;20106;-77
2021/05/08 09:39:26;;;;;;;;;;;;;;;;;;6257552;28;20095;-76
2021/05/08 09:42:46;;;;;;;1.73;0.80;;;;;;;;;;6248885;28;19928;-75
2021/05/08 09:45:51;;;;;;;2.22;0.60;;;;;;;;;;6243915;28;20077;-75
2021/05/08 09:49:10;;;;;;;5.93;0.88;;;;;;;;;;6250396;28;20068;-75
2021/05/08 09:52:11;;;;;;;3.40;0.70;;;;;;;;;;6245742;28;20045;-76
2021/05/08 09:55:13;;;;;;;3.38;0.70;;;;;;;;;;6245249;28;20057;-74
2021/05/08 09:58:15;;;;;;;2.28;0.85;;;;;;;;;;6251720;28;20542;-76
2021/05/08 10:01:18;;;;;;;9.77;1.02;;;;;;;;;;6259879;28;20146;-75
2021/05/08 10:04:28;;;;;;;2.53;0.80;;;;;;;;;;6255415;28;20131;-75
2021/05/08 10:07:30;;;;;;;1.73;0.77;;;;;;;;;;6258539;28;20052;-75
2021/05/08 10:10:31;;;;;;;3.03;0.80;;;;;;;;;;6255619;28;20041;-75
2021/05/08 10:13:33;;;;;;;1.35;0.73;;;;;;;;;;6246492;28;20103;-76
2021/05/08 10:16:34;;;;;;;4.65;0.90;;;;;;;;;;6255398;28;20589;-75
2021/05/08 10:19:37;;;;;;;0.95;0.70;;;;;;;;;;6239276;28;20041;-76
2021/05/08 10:22:42;;;;;;;3.55;0.90;;;;;;;;;;6212996;28;20085;-76
2021/05/08 10:25:44;;;;;;;1.67;0.70;;;;;;;;;;6240957;28;20077;-75
2021/05/08 10:28:46;;;;;;;3.28;1.00;;;;;;;;;;6246632;28;20056;-75
2021/05/08 10:31:47;;;;;;;1.13;0.90;;;;;;;;;;6249567;28;20072;-75
2021/05/08 10:34:52;;;;;;;3.55;0.95;;;;;;;;;;6257958;28;20068;-76
2021/05/08 10:38:18;;;;;;;8.07;1.13;;;;;;;;;;6258913;28;20073;-75
2021/05/08 10:41:21;;;;;;;1.77;0.65;;;;;;;;;;6262570;28;20548;-75
2021/05/08 10:44:45;;;;;;;4.18;1.73;;;;;;;;;;6257045;28;20136;-74
2021/05/08 10:48:12;;;;;;;2.95;1.02;;;;;;;;;;6239820;28;20057;-75
2021/05/08 10:51:13;;;;;;;2.80;0.95;;;;;;;;;;6245318;28;20049;-75
2021/05/08 10:54:48;;;;;;;1.77;1.05;;;;;;;;;;6267053;28;20045;-75
2021/05/08 10:58:28;;;;;;;1.55;1.10;;;;;;;;;;6263863;28;20045;-72
2021/05/08 11:01:39;;;;;;;3.75;1.10;;;;;;;;;;6267007;28;20171;-74
2021/05/08 11:05:13;;;;;;;2.10;0.88;;;;;;;;;;6259582;28;20045;-73
2021/05/08 11:08:39;;;;;;;4.00;1.30;;;;;;;;;;6263227;28;20045;-72
2021/05/08 11:11:47;;;;;;;2.05;0.90;;;;;;;;;;6251771;28;20064;-73
2021/05/08 11:14:55;;;;;;;1.95;0.95;;;;;;;;;;6238808;28;20107;-72
2021/05/08 11:18:02;;;;;;;3.22;1.38;;;;;;;;;;6238553;28;20129;-73
2021/05/08 11:21:05;;;;;;;2.00;1.20;;;;;;;;;;6263077;28;20068;-73
2021/05/08 11:24:07;;;;;;;;;;;;;;;;;;6259570;28;20182;-73
2021/05/08 11:27:21;;;;;;;3.63;1.00;;;;;;;;;;6260398;28;19928;-73
2021/05/08 11:30:23;;;;;;;4.47;1.48;;;;;;;;;;6261652;28;20073;-76
2021/05/08 11:33:25;;;;;;;2.75;1.10;;;;;;;;;;6262184;28;20073;-75
2021/05/08 11:36:27;;;;;;;1.77;1.30;;;;;;;;;;6262847;28;20052;-78
2021/05/08 11:39:30;;;;;;;2.08;1.35;;;;;;;;;;6251939;28;20108;-73
2021/05/08 11:42:32;;;;;;;5.57;1.75;;;;;;;;;;6256160;28;20073;-78
2021/05/08 11:45:40;;;;;;;2.23;1.33;;;;;;;;;;6241587;28;20045;-77
2021/05/08 11:48:48;;;;;;;3.55;1.25;;;;;;;;;;6244816;28;20462;-77
2021/05/08 11:51:49;;;;;;;2.15;1.33;;;;;;;;;;6259987;28;20060;-75
2021/05/08 11:54:51;;;;;;;1.73;1.08;;;;;;;;;;6237337;28;20115;-76
2021/05/08 11:57:55;;;;;;;2.28;1.00;;;;;;;;;;6247811;28;20045;-72
2021/05/08 12:00:57;;;;;;;2.25;1.00;;;;;;;;;;6241565;28;20053;-74
2021/05/08 12:03:59;;;;;;;3.65;1.10;;;;;;;;;;6236089;28;20049;-75
2021/05/08 12:07:03;;;;;;;3.40;1.30;;;;;;;;;;6239425;28;20087;-75
2021/05/08 12:10:15;;;;;;;2.72;1.30;;;;;;;;;;6249400;28;20508;-75
2021/05/08 12:13:16;;;;;;;1.33;1.00;;;;;;;;;;6255598;28;20049;-74
2021/05/08 12:16:19;;;;;;;2.22;1.15;;;;;;;;;;6256587;28;20075;-74
2021/05/08 12:19:20;;;;;;;2.20;1.60;;;;;;;;;;6238200;28;20050;-74
2021/05/08 12:22:21;;;;;;;3.15;1.20;;;;;;;;;;6232534;28;20088;-72
2021/05/08 12:25:24;;;;;;;3.38;1.40;;;;;;;;;;6262852;28;20551;-74
2021/05/08 12:28:25;;;;;;;2.53;1.60;;;;;;;;;;6257565;28;20049;-74
2021/05/08 12:31:29;;;;;;;4.82;1.70;;;;;;;;;;6261586;28;20045;-74
2021/05/08 12:34:30;;;;;;;4.13;1.30;;;;;;;;;;6254475;28;21774;-73
2021/05/08 12:37:40;;;;;;;4.78;1.60;;;;;;;;;;6260875;28;20083;-75
2021/05/08 12:40:41;;;;;;;4.13;1.40;;;;;;;;;;6255932;28;20057;-71
2021/05/08 12:43:42;;;;;;;3.38;1.60;;;;;;;;;;6235795;28;20136;-75
2021/05/08 12:46:56;;;;;;;2.45;1.30;;;;;;;;;;6252735;28;20081;-72
2021/05/08 12:50:12;;;;;;;2.53;1.30;;;;;;;;;;6241385;28;20046;-72
2021/05/08 12:53:21;;;;;;;2.83;1.20;;;;;;;;;;6262885;28;20048;-72
2021/05/08 12:56:26;;;;;;;6.57;1.40;;;;;;;;;;6256344;28;20046;-73
2021/05/08 12:59:31;;;;;;;2.70;1.10;;;;;;;;;;6250811;28;20071;-73
2021/05/08 13:02:34;;;;;;;4.63;2.08;;;;;;;;;;6260129;28;20061;-73
2021/05/08 13:05:35;;;;;;;5.90;2.35;;;;;;;;;;6263309;28;20559;-71
2021/05/08 13:08:42;;;;;;;3.60;1.70;;;;;;;;;;6257271;28;20055;-72
2021/05/08 13:11:43;;;;;;;4.80;1.73;;;;;;;;;;6259898;28;20633;-72
2021/05/08 13:14:45;;;;;;;4.57;1.80;;;;;;;;;;6247136;28;20052;-73
2021/05/08 13:17:48;;;;;;;3.45;1.80;;;;;;;;;;6262492;28;20142;-72
2021/05/08 13:20:49;;;;;;;;;;;;;;;;;;6209727;28;20135;-72
2021/05/08 13:23:50;;;;;;;3.38;1.60;;;;;;;;;;6253149;28;19924;-73
2021/05/08 13:26:51;;;;;;;3.00;1.80;;;;;;;;;;6252393;28;20136;-73
2021/05/08 13:29:52;;;;;;;3.67;1.63;;;;;;;;;;6258787;28;20610;-73
2021/05/08 13:32:56;;;;;;;2.40;1.40;;;;;;;;;;6258706;28;20475;-74
2021/05/08 13:35:57;;;;;;;5.10;1.70;;;;;;;;;;6259963;28;20495;-72
2021/05/08 13:38:58;;;;;;;3.15;1.50;;;;;;;;;;6260458;28;20234;-71
2021/05/08 13:41:59;;;;;;;4.05;1.35;;;;;;;;;;6261051;28;20061;-73
2021/05/08 13:45:00;;;;;;;6.95;1.65;;;;;;;;;;6258910;28;20099;-72
2021/05/08 13:48:05;;;;;;;3.95;1.70;;;;;;;;;;6256275;28;20053;-72
2021/05/08 13:51:06;;;;;;;3.67;1.42;;;;;;;;;;6257457;28;20113;-73
2021/05/08 13:54:08;;;;;;;2.90;1.20;;;;;;;;;;6258246;28;20795;-72
2021/05/08 13:57:09;;;;;;;4.32;1.70;;;;;;;;;;6256357;28;20591;-74
2021/05/08 14:00:11;;;;;;;2.90;1.30;;;;;;;;;;6259155;28;20118;-73
2021/05/08 14:03:13;;;;;;;3.83;1.63;;;;;;;;;;6261156;28;20072;-73
2021/05/08 14:06:14;;;;;;;5.00;1.50;;;;;;;;;;6254083;28;20063;-72
2021/05/08 14:09:16;;;;;;;3.63;1.13;;;;;;;;;;6253664;28;20133;-73
2021/05/08 14:12:17;;;;;;;4.60;1.65;;;;;;;;;;6256318;28;20064;-72
2021/05/08 14:15:18;;;;;;;2.30;1.33;;;;;;;;;;6261131;28;20076;-74
2021/05/08 14:18:21;;;;;;;2.65;1.35;;;;;;;;;;6259824;28;20543;-74
2021/05/08 14:21:22;;;;;;;9.95;2.53;;;;;;;;;;6262249;28;20044;-74
2021/05/08 14:24:23;;;;;;;4.07;0.93;;;;;;;;;;6260700;28;20614;-75
2021/05/08 14:27:24;;;;;;;2.15;1.02;;;;;;;;;;6262821;28;20080;-73
2021/05/08 14:30:25;;;;;;;5.35;1.95;;;;;;;;;;6258210;28;20106;-73
2021/05/08 14:33:27;;;;;;;4.43;1.92;;;;;;;;;;6255500;28;20075;-73
2021/05/08 14:36:29;;;;;;;3.25;1.90;;;;;;;;;;6248386;28;20123;-72
2021/05/08 14:39:30;;;;;;;9.18;2.03;;;;;;;;;;6248560;28;20147;-74
2021/05/08 14:42:31;;;;;;;6.22;1.92;;;;;;;;;;6246677;28;20137;-74
2021/05/08 14:45:32;;;;;;;3.72;2.13;;;;;;;;;;6250733;28;20194;-75
2021/05/08 14:48:34;;;;;;;2.75;1.70;;;;;;;;;;6247579;28;20125;-74
2021/05/08 14:51:35;;;;;;;4.90;2.05;;;;;;;;;;6245564;28;20069;-72
2021/05/08 14:54:36;;;;;;;3.28;1.50;;;;;;;;;;6248073;28;20100;-71
2021/05/08 14:57:37;;;;;;;2.60;1.48;;;;;;;;;;6251232;28;20501;-72
2021/05/08 15:00:38;;;;;;;3.67;1.50;;;;;;;;;;6251766;28;20191;-74
2021/05/08 15:03:40;;;;;;;4.10;1.60;;;;;;;;;;6247875;28;20089;-74
2021/05/08 15:06:41;;;;;;;4.60;1.45;;;;;;;;;;6256295;28;20762;-76
2021/05/08 15:09:42;;;;;;;7.28;1.40;;;;;;;;;;6257939;28;20048;-74
2021/05/08 15:12:44;;;;;;;3.45;1.48;;;;;;;;;;6257448;28;20064;-74
2021/05/08 15:15:45;;;;;;;3.42;1.20;;;;;;;;;;6255166;28;20045;-74
2021/05/08 15:18:48;;;;;;;7.55;1.80;;;;;;;;;;6251238;28;20049;-74
2021/05/08 15:21:49;;;;;;;3.75;1.48;;;;;;;;;;6255976;28;20053;-74
2021/05/08 15:24:51;;;;;;;3.60;1.38;;;;;;;;;;6248085;28;20128;-75
2021/05/08 15:27:52;;;;;;;8.35;2.00;;;;;;;;;;6247672;28;20148;-74
2021/05/08 15:30:53;;;;;;;4.88;1.58;;;;;;;;;;6245249;28;20049;-76
2021/05/08 15:33:56;;;;;;;3.17;1.50;;;;;;;;;;6250937;28;20480;-76
2021/05/08 15:36:58;;;;;;;5.60;1.25;;;;;;;;;;6258482;28;20496;-75
2021/05/08 15:39:59;;;;;;;6.40;1.95;;;;;;;;;;6263025;28;20065;-75
2021/05/08 15:43:00;;;;;;;3.97;1.30;;;;;;;;;;6258530;28;20497;-75
2021/05/08 15:46:01;;;;;;;4.25;1.55;;;;;;;;;;6255901;28;20120;-76
2021/05/08 15:49:05;;;;;;;8.50;1.90;;;;;;;;;;6246576;28;20130;-75
2021/05/08 15:52:06;;;;;;;6.00;1.48;;;;;;;;;;6246992;28;20057;-76
2021/05/08 15:55:08;;;;;;;4.60;1.67;;;;;;;;;;6258902;28;20074;-75
2021/05/08 15:58:09;;;;;;;2.72;1.23;;;;;;;;;;6257738;28;20049;-75
2021/05/08 16:01:11;;;;;;;5.88;1.45;;;;;;;;;;6261824;28;20069;-75
2021/05/08 16:04:13;;;;;;;6.20;1.40;;;;;;;;;;6258893;28;20126;-74
2021/05/08 16:07:15;;;;;;;5.00;1.10;;;;;;;;;;6260490;28;20095;-75
2021/05/08 16:10:22;;;;;;;11.18;1.70;;;;;;;;;;6257657;28;20071;-75
2021/05/08 16:13:23;;;;;;;3.92;1.20;;;;;;;;;;6257597;28;20040;-75
2021/05/08 16:16:24;;;;;;;3.72;1.30;;;;;;;;;;6250819;28;20071;-74
2021/05/08 16:19:28;;;;;;;3.40;1.77;;;;;;;;;;6249509;28;20132;-74
2021/05/08 16:22:29;;;;;;;2.15;1.23;;;;;;;;;;6245074;28;20049;-75
2021/05/08 16:25:30;;;;;;;3.60;1.40;;;;;;;;;;6253429;28;20073;-74
2021/05/08 16:28:31;;;;;;;5.43;1.90;;;;;;;;;;6246699;28;20461;-75
2021/05/08 16:31:33;;;;;;;4.47;1.40;;;;;;;;;;6254251;28;20581;-74
2021/05/08 16:34:35;;;;;;;3.50;1.30;;;;;;;;;;6263411;28;20134;-74
2021/05/08 16:37:36;;;;;;;4.40;1.30;;;;;;;;;;6265720;28;20424;-75
2021/05/08 16:40:37;;;;;;;6.53;1.48;;;;;;;;;;6267852;28;20542;-74
2021/05/08 16:43:38;;;;;;;8.73;1.50;;;;;;;;;;6265237;28;20049;-74
2021/05/08 16:46:39;;;;;;;6.13;1.35;;;;;;;;;;6257038;28;20079;-74
2021/05/08 16:49:41;;;;;;;7.45;1.80;;;;;;;;;;6258325;28;20504;-74
2021/05/08 16:52:44;;;;;;;8.45;1.55;;;;;;;;;;6256740;28;20057;-74
2021/05/08 16:55:45;;;;;;;7.60;2.03;;;;;;;;;;6256887;28;20057;-72
2021/05/08 16:58:46;;;;;;;4.50;1.52;;;;;;;;;;6262927;28;20567;-74
2021/05/08 17:01:47;;;;;;;8.20;1.40;;;;;;;;;;6268597;28;20052;-75
2021/05/08 17:04:50;;;;;;;5.03;1.67;;;;;;;;;;6256581;28;20049;-76
2021/05/08 17:07:51;;;;;;;5.07;2.30;;;;;;;;;;6267305;28;20128;-75
2021/05/08 17:10:52;;;;;;;4.47;1.40;;;;;;;;;;6266823;28;20052;-76
2021/05/08 17:13:53;;;;;;;3.33;1.50;;;;;;;;;;6263989;28;20052;-76
2021/05/08 17:16:54;;;;;;;3.80;1.50;;;;;;;;;;6263038;28;20053;-75
2021/05/08 17:19:56;;;;;;;5.25;3.10;;;;;;;;;;6272725;28;20087;-75
2021/05/08 17:22:57;;;;;;;4.60;1.98;;;;;;;;;;6271316;28;20102;-76
2021/05/08 17:25:58;;;;;;;7.70;1.75;;;;;;;;;;6265021;28;20052;-74
2021/05/08 17:28:59;;;;;;;4.15;1.40;;;;;;;;;;6262739;28;20044;-74
2021/05/08 17:32:01;;;;;;;5.78;1.83;;;;;;;;;;6268368;28;20081;-75
2021/05/08 17:35:03;;;;;;;4.50;1.50;;;;;;;;;;6263957;28;20068;-74
2021/05/08 17:38:04;;;;;;;2.42;1.40;;;;;;;;;;6258879;28;20408;-74
2021/05/08 17:41:05;;;;;;;2.28;1.55;;;;;;;;;;6253566;28;20068;-73
2021/05/08 17:44:06;;;;;;;3.45;1.58;;;;;;;;;;6255504;28;20133;-74
2021/05/08 17:47:07;;;;;;;6.43;1.70;;;;;;;;;;6261335;28;20084;-75
2021/05/08 17:50:10;;;;;;;5.47;1.50;;;;;;;;;;6263316;28;20622;-73
2021/05/08 17:53:11;;;;;;;7.00;2.10;;;;;;;;;;6263958;28;20044;-74
2021/05/08 17:56:13;;;;;;;4.13;1.60;;;;;;;;;;6252081;28;20587;-73
2021/05/08 17:59:14;;;;;;;2.97;1.67;;;;;;;;;;6264514;28;20130;-75
2021/05/08 18:02:15;;;;;;;4.95;1.77;;;;;;;;;;6264678;28;20061;-72
2021/05/08 18:05:17;;;;;;;7.60;2.35;;;;;;;;;;6265239;28;20045;-72
2021/05/08 18:08:19;;;;;;;5.57;1.60;;;;;;;;;;6264810;28;20052;-73
2021/05/08 18:11:20;;;;;;;9.60;2.70;;;;;;;;;;6265593;28;20095;-73
2021/05/08 18:14:22;;;;;;;4.20;1.70;;;;;;;;;;6262077;28;20512;-73